createdAt,value
2023-08-07T00:02:22.472Z,96394.69
2023-08-07T00:04:49.474Z,96429.16
2023-08-07T00:07:16.918Z,96419.91
2023-08-07T00:09:43.821Z,96388.84
2023-08-07T00:12:10.839Z,96397.53
2023-08-07T00:14:37.906Z,96406.88
2023-08-07T00:17:04.708Z,96410.25
2023-08-07T00:19:32.102Z,96404.16
2023-08-07T00:21:59.072Z,96391.28
2023-08-07T00:24:25.883Z,96421.09
2023-08-07T00:26:53.174Z,96386.66
2023-08-07T00:29:20.602Z,96377.59
2023-08-07T00:31:47.677Z,96388.75
2023-08-07T00:34:14.470Z,96385.88
2023-08-07T00:36:41.557Z,96392.19
2023-08-07T00:39:08.725Z,96373.56
2023-08-07T00:41:35.700Z,96398.03
2023-08-07T00:44:02.841Z,96379.00
2023-08-07T00:46:29.808Z,96397.09
2023-08-07T00:48:56.737Z,96375.19
2023-08-07T00:51:24.337Z,96380.91
2023-08-07T00:53:51.105Z,96377.59
2023-08-07T00:56:18.613Z,96373.00
2023-08-07T00:58:45.599Z,96364.81
2023-08-07T01:01:12.485Z,96384.66
2023-08-07T01:03:39.724Z,96366.63
2023-08-07T01:06:06.634Z,96404.56
2023-08-07T01:08:33.585Z,96373.06
2023-08-07T01:11:32.697Z,96385.75
2023-08-07T01:14:23.881Z,96385.44
2023-08-07T01:17:07.634Z,96384.34
2023-08-07T01:19:35.254Z,96372.53
2023-08-07T01:22:15.397Z,96387.97
2023-08-07T01:24:44.117Z,96378.59
2023-08-07T01:27:20.177Z,96396.88
2023-08-07T01:29:49.854Z,96405.44
2023-08-07T01:32:19.552Z,96388.88
2023-08-07T01:34:46.675Z,96400.66
2023-08-07T01:37:14.971Z,96400.66
2023-08-07T01:39:42.083Z,96415.09
2023-08-07T01:42:09.050Z,96391.13
2023-08-07T01:44:35.989Z,96394.47
2023-08-07T01:47:03.324Z,96374.13
2023-08-07T01:49:30.204Z,96394.88
2023-08-07T01:51:57.334Z,96409.28
2023-08-07T01:54:24.508Z,96409.63
2023-08-07T01:56:51.372Z,96408.31
2023-08-07T01:59:18.149Z,96418.78
2023-08-07T02:01:45.299Z,96411.63
2023-08-07T02:04:12.435Z,96376.94
2023-08-07T02:06:39.545Z,96404.28
2023-08-07T02:09:06.464Z,96432.63
2023-08-07T02:11:33.286Z,96410.09
2023-08-07T02:14:00.081Z,96408.94
2023-08-07T02:16:27.147Z,96412.75
2023-08-07T02:18:54.062Z,96400.72
2023-08-07T02:21:21.116Z,96432.44
2023-08-07T02:23:48.359Z,96391.91
2023-08-07T02:26:15.338Z,96392.94
2023-08-07T02:28:42.276Z,96406.47
2023-08-07T02:31:09.368Z,96407.72
2023-08-07T02:33:36.174Z,96400.47
2023-08-07T02:36:03.044Z,96408.13
2023-08-07T02:38:29.919Z,96371.56
2023-08-07T02:40:56.959Z,96386.34
2023-08-07T02:43:24.192Z,96417.38
2023-08-07T02:45:50.995Z,96410.84
2023-08-07T02:48:18.074Z,96411.38
2023-08-07T02:50:44.873Z,96420.25
2023-08-07T02:53:12.646Z,96426.44
2023-08-07T02:55:39.441Z,96421.66
2023-08-07T02:58:06.610Z,96435.94
2023-08-07T03:00:35.499Z,96423.88
2023-08-07T03:03:02.400Z,96424.69
2023-08-07T03:05:30.064Z,96451.63
2023-08-07T03:07:57.355Z,96430.88
2023-08-07T03:10:26.599Z,96447.44
2023-08-07T03:12:53.887Z,96428.13
2023-08-07T03:15:20.648Z,96407.94
2023-08-07T03:17:47.491Z,96421.47
2023-08-07T03:20:14.364Z,96426.88
2023-08-07T03:22:41.304Z,96452.25
2023-08-07T03:25:09.070Z,96387.56
2023-08-07T03:27:36.071Z,96443.38
2023-08-07T03:30:03.777Z,96457.63
2023-08-07T03:32:30.719Z,96455.44
2023-08-07T03:34:57.706Z,96426.81
2023-08-07T03:37:24.522Z,96452.25
2023-08-07T03:39:51.410Z,96454.44
2023-08-07T03:42:18.194Z,96433.50
2023-08-07T03:44:44.950Z,96474.53
2023-08-07T03:47:11.722Z,96446.47
2023-08-07T03:49:39.067Z,96471.25
2023-08-07T03:52:06.026Z,96486.91
2023-08-07T03:54:33.560Z,96502.47
2023-08-07T03:57:00.401Z,96473.56
2023-08-07T03:59:27.245Z,96499.88
2023-08-07T04:01:54.336Z,96498.97
2023-08-07T04:04:21.576Z,96505.97
2023-08-07T04:06:48.796Z,96535.59
2023-08-07T04:09:15.830Z,96514.06
2023-08-07T04:11:42.831Z,96527.06
2023-08-07T04:14:09.672Z,96523.34
2023-08-07T04:16:37.047Z,96513.47
2023-08-07T04:19:04.486Z,96511.28
2023-08-07T04:21:31.834Z,96542.91
2023-08-07T04:23:58.703Z,96554.00
2023-08-07T04:26:28.807Z,96538.72
2023-08-07T04:28:55.808Z,96526.34
2023-08-07T04:31:22.602Z,96557.31
2023-08-07T04:33:49.491Z,96529.84
2023-08-07T04:36:17.253Z,96552.13
2023-08-07T04:38:44.325Z,96555.41
2023-08-07T04:43:53.106Z,96560.09
2023-08-07T04:46:20.589Z,96547.59
2023-08-07T04:48:47.861Z,96567.19
2023-08-07T04:51:18.170Z,96564.09
2023-08-07T04:53:48.574Z,96554.31
2023-08-07T04:56:15.538Z,96564.19
2023-08-07T04:58:42.972Z,96548.84
2023-08-07T05:01:10.110Z,96566.78
2023-08-07T05:03:37.117Z,96580.06
2023-08-07T05:06:04.441Z,96559.91
2023-08-07T05:08:31.200Z,96552.59
2023-08-07T05:10:58.112Z,96557.72
2023-08-07T05:13:25.089Z,96539.75
2023-08-07T05:15:51.967Z,96569.66
2023-08-07T05:18:19.096Z,96581.66
2023-08-07T05:20:46.844Z,96589.13
2023-08-07T05:23:13.759Z,96590.94
2023-08-07T05:25:40.877Z,96575.38
2023-08-07T05:28:07.873Z,96576.06
2023-08-07T05:30:35.613Z,96597.53
2023-08-07T05:33:02.737Z,96598.41
2023-08-07T05:35:29.511Z,96593.72
2023-08-07T05:37:56.344Z,96578.56
2023-08-07T05:40:24.497Z,96587.75
2023-08-07T05:42:51.367Z,96593.22
2023-08-07T05:45:18.114Z,96585.16
2023-08-07T05:47:45.220Z,96601.09
2023-08-07T05:50:12.106Z,96619.69
2023-08-07T05:52:38.872Z,96607.91
2023-08-07T05:55:07.633Z,96625.34
2023-08-07T05:57:35.229Z,96615.09
2023-08-07T06:00:02.289Z,96614.19
2023-08-07T06:02:29.733Z,96629.06
2023-08-07T06:04:59.874Z,96642.75
2023-08-07T06:07:27.305Z,96642.94
2023-08-07T06:09:57.386Z,96650.41
2023-08-07T06:12:24.341Z,96660.09
2023-08-07T06:14:51.637Z,96658.38
2023-08-07T06:17:18.757Z,96646.31
2023-08-07T06:19:45.580Z,96638.94
2023-08-07T06:22:12.375Z,96669.88
2023-08-07T06:24:39.332Z,96659.88
2023-08-07T06:27:06.928Z,96672.66
2023-08-07T06:29:33.816Z,96687.25
2023-08-07T06:32:01.120Z,96640.13
2023-08-07T06:34:33.160Z,96673.16
2023-08-07T06:37:00.042Z,96669.88
2023-08-07T06:39:44.347Z,96667.19
2023-08-07T06:42:11.194Z,96673.84
2023-08-07T06:44:38.206Z,96676.28
2023-08-07T06:47:05.249Z,96670.97
2023-08-07T06:49:34.607Z,96687.91
2023-08-07T06:52:01.863Z,96674.75
2023-08-07T06:54:28.746Z,96684.03
2023-08-07T06:56:55.737Z,96689.34
2023-08-07T06:59:22.983Z,96676.16
2023-08-07T07:01:56.825Z,96668.66
2023-08-07T07:04:27.976Z,96683.84
2023-08-07T07:06:54.908Z,96687.44
2023-08-07T07:09:22.175Z,96695.94
2023-08-07T07:11:49.040Z,96694.53
2023-08-07T07:14:15.899Z,96692.72
2023-08-07T07:16:48.712Z,96690.53
2023-08-07T07:19:15.891Z,96707.81
2023-08-07T07:21:42.985Z,96671.28
2023-08-07T07:24:09.820Z,96703.81
2023-08-07T07:26:37.330Z,96713.19
2023-08-07T07:29:04.176Z,96700.81
2023-08-07T07:31:31.698Z,96721.00
2023-08-07T07:33:58.590Z,96731.78
2023-08-07T07:41:44.196Z,96750.84
2023-08-07T07:44:11.003Z,96720.28
2023-08-07T07:46:38.108Z,96726.78
2023-08-07T07:49:05.120Z,96722.78
2023-08-07T07:51:32.864Z,96723.38
2023-08-07T07:54:13.671Z,96763.13
2023-08-07T07:56:41.320Z,96752.13
2023-08-07T07:59:09.414Z,96735.66
2023-08-07T08:01:38.812Z,96731.47
2023-08-07T08:04:05.730Z,96754.84
2023-08-07T08:06:32.827Z,96774.63
2023-08-07T08:08:59.942Z,96740.34
2023-08-07T08:11:27.085Z,96762.22
2023-08-07T08:13:54.459Z,96750.94
2023-08-07T08:16:21.412Z,96790.09
2023-08-07T08:18:48.520Z,96770.31
2023-08-07T08:21:15.785Z,96772.31
2023-08-07T08:23:42.722Z,96796.22
2023-08-07T08:26:12.888Z,96757.94
2023-08-07T08:28:39.757Z,96771.63
2023-08-07T08:31:08.402Z,96808.50
2023-08-07T08:33:35.693Z,96777.81
2023-08-07T08:36:02.896Z,96792.41
2023-08-07T08:38:30.497Z,96798.59
2023-08-07T08:40:57.626Z,96809.59
2023-08-07T08:48:41.309Z,96808.91
2023-08-07T08:51:07.921Z,96826.28
2023-08-07T08:53:34.599Z,96805.69
2023-08-07T08:56:02.164Z,96793.91
2023-08-07T08:58:29.134Z,96828.66
2023-08-07T09:00:55.836Z,96825.78
2023-08-07T09:03:22.849Z,96814.09
2023-08-07T09:05:49.657Z,96834.78
2023-08-07T09:08:16.351Z,96824.38
2023-08-07T09:10:43.173Z,96839.06
2023-08-07T09:13:12.232Z,96837.38
2023-08-07T09:15:39.095Z,96852.88
2023-08-07T09:18:06.631Z,96844.25
2023-08-07T09:20:33.347Z,96872.97
2023-08-07T09:22:59.938Z,96851.75
2023-08-07T09:25:30.112Z,96837.47
2023-08-07T09:27:56.917Z,96868.56
2023-08-07T09:30:28.365Z,96857.84
2023-08-07T09:32:55.190Z,96869.47
2023-08-07T09:35:22.356Z,96854.47
2023-08-07T09:37:49.084Z,96855.56
2023-08-07T09:40:15.902Z,96860.06
2023-08-07T09:42:42.646Z,96871.25
2023-08-07T09:45:26.120Z,96833.78
2023-08-07T09:47:59.315Z,96846.38
2023-08-07T09:50:26.059Z,96865.78
2023-08-07T09:52:52.758Z,96852.16
2023-08-07T09:55:19.397Z,96843.66
2023-08-07T09:57:46.122Z,96870.06
2023-08-07T10:00:16.128Z,96877.97
2023-08-07T10:02:43.618Z,96908.13
2023-08-07T10:05:11.439Z,96870.22
2023-08-07T10:07:41.488Z,96886.59
2023-08-07T10:10:08.581Z,96881.84
2023-08-07T10:12:35.361Z,96894.41
2023-08-07T10:15:02.196Z,96881.97
2023-08-07T10:17:28.979Z,96882.88
2023-08-07T10:19:55.824Z,96888.66
2023-08-07T10:22:26.638Z,96868.00
2023-08-07T10:24:54.213Z,96892.94
2023-08-07T10:27:21.652Z,96873.66
2023-08-07T10:29:48.832Z,96882.56
2023-08-07T10:32:16.100Z,96887.34
2023-08-07T10:34:43.811Z,96895.47
2023-08-07T10:37:10.414Z,96904.91
2023-08-07T10:39:37.089Z,96908.09
2023-08-07T10:42:04.111Z,96909.06
2023-08-07T10:44:31.274Z,96907.97
2023-08-07T10:46:58.614Z,96908.13
2023-08-07T10:49:36.183Z,96895.50
2023-08-07T10:52:04.227Z,96905.00
2023-08-07T10:54:30.954Z,96890.09
2023-08-07T10:56:57.994Z,96898.41
2023-08-07T10:59:24.872Z,96894.69
2023-08-07T11:01:52.870Z,96883.78
2023-08-07T11:04:19.740Z,96873.06
2023-08-07T11:06:48.470Z,96889.88
2023-08-07T11:09:15.089Z,96895.81
2023-08-07T11:11:48.038Z,96871.06
2023-08-07T11:14:18.586Z,96859.66
2023-08-07T11:16:45.913Z,96876.97
2023-08-07T11:19:14.500Z,96879.94
2023-08-07T11:21:41.566Z,96864.50
2023-08-07T11:24:08.217Z,96907.41
2023-08-07T11:26:34.974Z,96901.38
2023-08-07T11:29:01.624Z,96910.03
2023-08-07T11:31:28.581Z,96912.47
2023-08-07T11:33:58.894Z,96908.22
2023-08-07T11:36:25.672Z,96907.88
2023-08-07T11:38:52.325Z,96906.50
2023-08-07T11:41:19.586Z,96885.28
2023-08-07T11:43:46.401Z,96884.91
2023-08-07T11:46:14.495Z,96862.88
2023-08-07T11:48:42.266Z,96892.16
2023-08-07T11:51:08.925Z,96926.94
2023-08-07T11:53:39.253Z,96882.94
2023-08-07T11:56:09.966Z,96881.44
2023-08-07T11:58:40.876Z,96905.50
2023-08-07T12:01:11.782Z,96876.44
2023-08-07T12:03:42.952Z,96893.16
2023-08-07T12:06:09.982Z,96890.63
2023-08-07T12:08:41.173Z,96915.09
2023-08-07T12:11:12.829Z,96918.59
2023-08-07T12:13:41.049Z,96904.56
2023-08-07T12:16:08.115Z,96919.72
2023-08-07T12:18:35.346Z,96909.19
2023-08-07T12:21:03.663Z,96926.06
2023-08-07T12:23:30.699Z,96905.81
2023-08-07T12:25:57.345Z,96911.72
2023-08-07T12:28:24.070Z,96910.59
2023-08-07T12:30:51.652Z,96930.56
2023-08-07T12:33:18.257Z,96921.47
2023-08-07T12:35:45.012Z,96874.84
2023-08-07T12:38:11.996Z,96905.59
2023-08-07T12:40:40.015Z,96925.34
2023-08-07T12:43:07.733Z,96931.28
2023-08-07T12:48:04.185Z,96917.59
2023-08-07T12:50:30.968Z,96950.81
2023-08-07T12:52:57.767Z,96967.59
2023-08-07T12:55:24.481Z,96950.66
2023-08-07T12:57:51.248Z,96941.06
2023-08-07T13:00:17.980Z,96947.31
2023-08-07T13:02:47.864Z,96918.38
2023-08-07T13:05:14.860Z,96944.81
2023-08-07T13:07:42.578Z,96924.38
2023-08-07T13:10:10.954Z,96936.66
2023-08-07T13:12:39.067Z,96920.38
2023-08-07T13:15:06.398Z,96950.19
2023-08-07T13:17:33.357Z,96937.72
2023-08-07T13:20:00.921Z,96946.78
2023-08-07T13:22:27.623Z,96923.25
2023-08-07T13:24:54.219Z,96929.28
2023-08-07T13:27:20.948Z,96941.91
2023-08-07T13:29:48.066Z,96931.28
2023-08-07T13:32:14.798Z,96950.00
2023-08-07T13:34:41.551Z,96964.38
2023-08-07T13:37:08.246Z,96940.75
2023-08-07T13:39:34.870Z,96959.63
2023-08-07T13:42:01.638Z,96943.16
2023-08-07T13:44:28.285Z,96976.97
2023-08-07T13:46:55.801Z,96949.84
2023-08-07T13:49:23.447Z,96972.00
2023-08-07T13:51:50.778Z,96963.25
2023-08-07T13:54:17.486Z,96982.22
2023-08-07T13:56:44.127Z,96990.16
2023-08-07T13:59:10.925Z,96971.47
2023-08-07T14:01:37.561Z,96976.44
2023-08-07T14:04:04.394Z,96960.50
2023-08-07T14:06:32.419Z,96950.97
2023-08-07T14:08:59.161Z,96976.03
2023-08-07T14:11:25.970Z,96951.44
2023-08-07T14:13:52.686Z,96969.47
2023-08-07T14:16:19.628Z,97001.88
2023-08-07T14:18:46.383Z,97019.25
2023-08-07T14:21:13.091Z,97010.94
2023-08-07T14:23:39.759Z,96997.50
2023-08-07T14:26:06.484Z,97019.69
2023-08-07T14:28:33.100Z,97024.03
2023-08-07T14:30:59.807Z,97037.94
2023-08-07T14:33:28.002Z,97029.97
2023-08-07T14:35:54.620Z,97015.50
2023-08-07T14:38:21.607Z,97038.00
2023-08-07T14:40:49.367Z,97013.88
2023-08-07T14:43:16.018Z,97045.97
2023-08-07T14:45:42.769Z,97046.28
2023-08-07T14:48:09.560Z,97026.31
2023-08-07T14:50:36.272Z,97019.63
2023-08-07T14:53:03.341Z,97033.22
2023-08-07T14:55:30.082Z,97070.25
2023-08-07T14:57:56.779Z,97052.31
2023-08-07T15:00:23.768Z,97046.91
2023-08-07T15:02:52.161Z,97070.84
2023-08-07T15:05:18.948Z,97060.59
2023-08-07T15:07:45.792Z,97087.88
2023-08-07T15:10:12.394Z,97075.56
2023-08-07T15:12:39.248Z,97057.88
2023-08-07T15:15:08.085Z,97076.38
2023-08-07T15:17:34.902Z,97055.09
2023-08-07T15:20:01.816Z,97078.47
2023-08-07T15:22:29.289Z,97093.34
2023-08-07T15:24:55.945Z,97079.56
2023-08-07T15:27:22.554Z,97101.38
2023-08-07T15:29:49.134Z,97102.16
2023-08-07T15:32:15.776Z,97124.53
2023-08-07T15:34:44.335Z,97122.38
2023-08-07T15:37:11.007Z,97130.84
2023-08-07T15:39:37.663Z,97146.69
2023-08-07T15:42:04.868Z,97154.13
2023-08-07T15:44:31.584Z,97114.75
2023-08-07T15:46:58.481Z,97143.28
2023-08-07T15:49:25.497Z,97130.97
2023-08-07T15:51:52.352Z,97132.22
2023-08-07T15:54:20.483Z,97135.28
2023-08-07T15:56:48.118Z,97123.56
2023-08-07T15:59:14.820Z,97139.78
2023-08-07T16:01:41.666Z,97147.31
2023-08-07T16:04:09.795Z,97151.63
2023-08-07T16:06:36.438Z,97131.28
2023-08-07T16:09:03.215Z,97094.53
2023-08-07T16:11:29.815Z,97139.31
2023-08-07T16:13:56.461Z,97120.38
2023-08-07T16:16:23.052Z,97130.38
2023-08-07T16:18:49.696Z,97141.81
2023-08-07T16:21:16.409Z,97082.84
2023-08-07T16:23:42.993Z,97120.56
2023-08-07T16:26:09.566Z,97112.28
2023-08-07T16:28:36.116Z,97130.50
2023-08-07T16:31:02.798Z,97131.72
2023-08-07T16:33:30.330Z,97084.50
2023-08-07T16:35:56.977Z,97121.75
2023-08-07T16:38:23.942Z,97131.88
2023-08-07T16:40:50.569Z,97091.56
2023-08-07T16:43:17.253Z,97101.28
2023-08-07T16:45:43.999Z,97081.19
2023-08-07T16:48:11.018Z,97118.78
2023-08-07T16:50:37.687Z,97123.47
2023-08-07T16:53:04.377Z,97125.44
2023-08-07T16:55:30.961Z,97125.47
2023-08-07T16:57:57.620Z,97121.56
2023-08-07T17:00:24.326Z,97107.72
2023-08-07T17:02:51.206Z,97131.78
2023-08-07T17:05:19.035Z,97116.47
2023-08-07T17:07:45.602Z,97126.13
2023-08-07T17:10:12.263Z,97135.81
2023-08-07T17:12:38.838Z,97114.47
2023-08-07T17:15:06.133Z,97115.91
2023-08-07T17:17:33.005Z,97135.91
2023-08-07T17:19:59.670Z,97137.13
2023-08-07T17:22:26.323Z,97099.47
2023-08-07T17:24:53.095Z,97093.88
2023-08-07T17:27:19.697Z,97123.81
2023-08-07T17:29:46.392Z,97117.09
2023-08-07T17:32:13.062Z,97109.69
2023-08-07T17:34:39.777Z,97089.97
2023-08-07T17:37:06.700Z,97108.59
2023-08-07T17:39:33.370Z,97134.47
2023-08-07T17:41:59.989Z,97098.91
2023-08-07T17:44:26.711Z,97111.63
2023-08-07T17:46:53.457Z,97117.53
2023-08-07T17:49:20.198Z,97099.97
2023-08-07T17:51:46.956Z,97091.66
2023-08-07T17:54:13.566Z,97094.88
2023-08-07T17:56:40.541Z,97121.53
2023-08-07T17:59:07.205Z,97123.94
2023-08-07T18:01:33.861Z,97120.03
2023-08-07T18:04:00.571Z,97100.63
2023-08-07T18:06:30.424Z,97117.75
2023-08-07T18:08:57.712Z,97116.94
2023-08-07T18:11:24.297Z,97150.41
2023-08-07T18:13:51.054Z,97128.06
2023-08-07T18:16:17.671Z,97100.63
2023-08-07T18:18:44.352Z,97089.63
2023-08-07T18:21:11.368Z,97137.50
2023-08-07T18:23:38.014Z,97122.38
2023-08-07T18:26:04.604Z,97126.91
2023-08-07T18:28:31.283Z,97139.09
2023-08-07T18:30:58.901Z,97135.81
2023-08-07T18:33:25.513Z,97144.53
2023-08-07T18:35:52.193Z,97132.13
2023-08-07T18:38:18.801Z,97131.13
2023-08-07T18:40:45.481Z,97133.50
2023-08-07T18:43:12.158Z,97100.34
2023-08-07T18:45:38.825Z,97108.38
2023-08-07T18:48:05.802Z,97130.22
2023-08-07T18:50:32.740Z,97129.22
2023-08-07T18:52:59.377Z,97144.72
2023-08-07T18:55:26.595Z,97137.41
2023-08-07T18:57:53.311Z,97140.03
2023-08-07T19:00:20.003Z,97154.84
2023-08-07T19:02:47.256Z,97135.13
2023-08-07T19:05:14.022Z,97130.78
2023-08-07T19:07:40.845Z,97136.50
2023-08-07T19:10:08.153Z,97119.78
2023-08-07T19:12:34.859Z,97163.81
2023-08-07T19:15:02.948Z,97127.50
2023-08-07T19:17:29.498Z,97116.41
2023-08-07T19:19:56.927Z,97049.22
2023-08-07T19:22:23.857Z,97128.66
2023-08-07T19:24:50.618Z,97167.75
2023-08-07T19:27:17.333Z,97155.53
2023-08-07T19:29:43.850Z,97135.50
2023-08-07T19:32:10.737Z,97161.69
2023-08-07T19:34:37.409Z,97159.66
2023-08-07T19:37:04.311Z,97180.16
2023-08-07T19:39:31.144Z,97165.38
2023-08-07T19:41:57.820Z,97169.16
2023-08-07T19:44:24.923Z,97141.16
2023-08-07T19:46:51.880Z,97167.88
2023-08-07T19:49:18.510Z,97175.75
2023-08-07T19:51:45.065Z,97170.03
2023-08-07T19:54:12.811Z,97178.16
2023-08-07T19:56:39.455Z,97156.78
2023-08-07T19:59:06.435Z,97160.81
2023-08-07T20:01:33.532Z,97185.22
2023-08-07T20:04:00.452Z,97167.00
2023-08-07T20:06:27.073Z,97159.41
2023-08-07T20:08:53.778Z,97148.59
2023-08-07T20:11:20.496Z,97189.31
2023-08-07T20:13:47.404Z,97160.41
2023-08-07T20:16:14.006Z,97156.53
2023-08-07T20:18:40.849Z,97164.66
2023-08-07T20:21:07.465Z,97146.84
2023-08-07T20:23:34.106Z,97153.34
2023-08-07T20:26:00.775Z,97126.38
2023-08-07T20:28:27.476Z,97164.38
2023-08-07T20:30:54.148Z,97170.94
2023-08-07T20:33:20.840Z,97165.97
2023-08-07T20:35:47.452Z,97153.25
2023-08-07T20:38:14.228Z,97148.88
2023-08-07T20:40:40.912Z,97174.34
2023-08-07T20:43:07.626Z,97149.63
2023-08-07T20:45:34.264Z,97163.06
2023-08-07T20:48:00.971Z,97158.81
2023-08-07T20:50:27.593Z,97156.53
2023-08-07T20:52:54.141Z,97144.31
2023-08-07T20:55:20.945Z,97160.00
2023-08-07T20:57:47.606Z,97160.00
2023-08-07T21:02:49.818Z,97193.56
2023-08-07T21:05:16.706Z,97159.78
2023-08-07T21:07:43.527Z,97154.81
2023-08-07T21:10:10.718Z,97148.06
2023-08-07T21:12:37.622Z,97150.16
2023-08-07T21:15:04.877Z,97145.34
2023-08-07T21:17:32.016Z,97148.31
2023-08-07T21:19:58.758Z,97168.25
2023-08-07T21:22:26.010Z,97143.97
2023-08-07T21:24:52.783Z,97148.84
2023-08-07T21:27:20.399Z,97138.84
2023-08-07T21:29:47.481Z,97124.66
2023-08-07T21:32:14.455Z,97166.16
2023-08-07T21:34:41.327Z,97161.53
2023-08-07T21:37:08.107Z,97145.66
2023-08-07T21:39:35.170Z,97142.66
2023-08-07T21:42:02.160Z,97133.97
2023-08-07T21:44:29.173Z,97156.88
2023-08-07T21:46:56.002Z,97155.78
2023-08-07T21:49:22.805Z,97154.97
2023-08-07T21:51:49.588Z,97131.06
2023-08-07T21:54:16.983Z,97147.41
2023-08-07T21:56:43.924Z,97133.84
2023-08-07T21:59:10.875Z,97152.94
2023-08-07T22:01:38.217Z,97158.41
2023-08-07T22:04:05.199Z,97134.41
2023-08-07T22:06:31.898Z,97151.19
2023-08-07T22:08:58.712Z,97125.00
2023-08-07T22:11:25.450Z,97142.38
2023-08-07T22:13:52.213Z,97140.16
2023-08-07T22:16:19.191Z,97148.47
2023-08-07T22:18:46.136Z,97166.66
2023-08-07T22:21:13.096Z,97133.19
2023-08-07T22:23:41.024Z,97140.16
2023-08-07T22:26:08.331Z,97135.78
2023-08-07T22:28:35.383Z,97153.09
2023-08-07T22:31:04.444Z,97145.00
2023-08-07T22:33:33.935Z,97149.72
2023-08-07T22:36:01.229Z,97101.81
2023-08-07T22:38:28.470Z,97130.97
2023-08-07T22:40:56.092Z,97130.75
2023-08-07T22:43:23.059Z,97132.38
2023-08-07T22:45:50.267Z,97140.13
2023-08-07T22:48:17.451Z,97144.69
2023-08-07T22:50:44.352Z,97132.59
2023-08-07T22:53:11.307Z,97132.59
2023-08-07T22:55:38.036Z,97120.06
2023-08-07T22:58:05.046Z,97152.13
2023-08-07T23:00:31.996Z,97121.94
2023-08-07T23:02:59.150Z,97019.31
2023-08-07T23:05:26.046Z,97143.75
2023-08-07T23:07:52.874Z,97151.31
2023-08-07T23:10:19.828Z,97133.84
2023-08-07T23:12:46.582Z,97131.72
2023-08-07T23:15:13.469Z,97123.09
2023-08-07T23:17:40.402Z,97134.25
2023-08-07T23:20:08.309Z,97122.97
2023-08-07T23:22:35.199Z,97125.09
2023-08-07T23:25:02.110Z,97109.97
2023-08-07T23:27:28.877Z,97127.47
2023-08-07T23:29:55.826Z,97146.66
2023-08-07T23:32:22.938Z,97091.75
2023-08-07T23:34:49.984Z,97127.13
2023-08-07T23:37:17.000Z,97148.25
2023-08-07T23:39:43.941Z,97134.59
2023-08-07T23:42:10.784Z,97120.91
2023-08-07T23:44:37.755Z,97118.16
2023-08-07T23:47:04.915Z,97111.97
2023-08-07T23:49:31.913Z,97086.66
2023-08-07T23:51:59.265Z,97125.44
2023-08-07T23:54:26.546Z,97097.38
2023-08-07T23:56:53.615Z,97092.34
2023-08-07T23:59:20.283Z,97107.19
